This is the latest recevied weather packets stored in our database for station/object K1BES. If no packets are shown the sender has not sent any weather packets the latest 1 day(s).
| Time | Temp. | Humidity | Pressure | Rain* | Wind** | Luminosity | Snow |
|---|---|---|---|---|---|---|---|
| 1777999874 | 28.89° C | 65% | 1017.8 hPa | 0 mm | 1.34 m/s, 246° | 1013 W/m² | - |
| 1777999569 | 28.89° C | 65% | 1017.5 hPa | 0 mm | 0.45 m/s, 40° | 1066 W/m² | - |
| 1777999268 | 28.33° C | 66% | 1017.6 hPa | 0 mm | 0.45 m/s, 355° | 1015 W/m² | - |
| 1777998966 | 29.44° C | 64% | 1017.8 hPa | 0 mm | 0.45 m/s, 342° | 265 W/m² | - |
| 1777998662 | 29.44° C | 64% | 1017.6 hPa | 0 mm | 0.89 m/s, 37° | 979 W/m² | - |
| 1777998360 | 29.44° C | 64% | 1017.7 hPa | 0 mm | 0.89 m/s, 292° | 1058 W/m² | - |
| 1777998058 | 28.89° C | 66% | 1017.7 hPa | 0 mm | 0.89 m/s, 299° | 1201 W/m² | - |
| 1777997754 | 28.33° C | 69% | 1017.8 hPa | 0 mm | 1.79 m/s, 186° | 1141 W/m² | - |
| 1777997452 | 28.89° C | 68% | 1017.5 hPa | 0 mm | 0.45 m/s, 0° | 212 W/m² | - |
| 1777997150 | 30° C | 61% | 1018 hPa | 0 mm | 0.45 m/s, 197° | 278 W/m² | - |
| 1777996847 | 30° C | 61% | 1017.9 hPa | 0 mm | 0.45 m/s, 23° | 1094 W/m² | - |
| 1777996542 | 28.89° C | 61% | 1017.7 hPa | 0 mm | 0.89 m/s, 72° | 462 W/m² | - |
| 1777996239 | 27.78° C | 64% | 1017.7 hPa | 0 mm | 0.45 m/s, 43° | 1044 W/m² | - |
| 1777995936 | 27.78° C | 64% | 1018 hPa | 0 mm | 1.34 m/s, 80° | 272 W/m² | - |
| 1777995632 | 27.78° C | 65% | 1018 hPa | 0 mm | 0 m/s | 168 W/m² | - |
| 1777995329 | 28.33° C | 65% | 1018 hPa | 0 mm | 0 m/s | 601 W/m² | - |
| 1777995026 | 28.33° C | 62% | 1018 hPa | 0 mm | 0.45 m/s, 86° | 223 W/m² | - |
| 1777994723 | 28.89° C | 61% | 1018 hPa | 0 mm | 0.45 m/s, 69° | 225 W/m² | - |
| 1777994419 | 29.44° C | 61% | 1018 hPa | 0 mm | 0 m/s | 229 W/m² | - |
| 1777994114 | 28.89° C | 61% | 1017.9 hPa | 0 mm | 0 m/s | 936 W/m² | - |
| 1777993812 | 28.33° C | 64% | 1018 hPa | 0 mm | 0 m/s | 891 W/m² | - |
| 1777993508 | 28.33° C | 63% | 1018 hPa | 0 mm | 0 m/s | 844 W/m² | - |
| 1777993203 | 27.78° C | 65% | 1018.2 hPa | 0 mm | 0 m/s | 929 W/m² | - |
| 1777992900 | 27.22° C | 68% | 1018 hPa | 0 mm | 0.45 m/s, 77° | 823 W/m² | - |
| 1777992598 | 28.33° C | 66% | 1018 hPa | 0 mm | 0 m/s | 344 W/m² | - |
* Rain latest hour (hover to see other rain measurements)
** Current wind speed in m/s (hover to see current wind gust speed)